sensor_id;sensor_type;location;lat;lon;timestamp;P1;durP1;ratioP1;P2;durP2;ratioP2
10295;SDS011;5193;51.032;6.356;2023-08-21T07:28:49;6.67;;;3.00;;
10295;SDS011;5193;51.032;6.356;2023-08-21T07:31:14;10.87;;;3.60;;
10295;SDS011;5193;51.032;6.356;2023-08-21T07:33:40;10.30;;;3.83;;
10295;SDS011;5193;51.032;6.356;2023-08-21T07:36:06;8.57;;;3.10;;
10295;SDS011;5193;51.032;6.356;2023-08-21T07:38:31;5.53;;;2.70;;
10295;SDS011;5193;51.032;6.356;2023-08-21T07:41:07;9.13;;;3.00;;
10295;SDS011;5193;51.032;6.356;2023-08-21T07:43:35;11.00;;;3.63;;
10295;SDS011;5193;51.032;6.356;2023-08-21T07:46:02;10.70;;;3.30;;
10295;SDS011;5193;51.032;6.356;2023-08-21T07:48:29;11.13;;;3.40;;
10295;SDS011;5193;51.032;6.356;2023-08-21T07:50:54;8.13;;;3.30;;
10295;SDS011;5193;51.032;6.356;2023-08-21T07:53:20;10.20;;;3.40;;
10295;SDS011;5193;51.032;6.356;2023-08-21T07:55:46;8.73;;;3.10;;
10295;SDS011;5193;51.032;6.356;2023-08-21T07:58:11;8.80;;;3.60;;
10295;SDS011;5193;51.032;6.356;2023-08-21T08:00:37;10.13;;;3.33;;
10295;SDS011;5193;51.032;6.356;2023-08-21T08:03:04;12.10;;;3.40;;
10295;SDS011;5193;51.032;6.356;2023-08-21T08:05:31;9.00;;;4.00;;
10295;SDS011;5193;51.032;6.356;2023-08-21T08:07:58;8.47;;;3.03;;
10295;SDS011;5193;51.032;6.356;2023-08-21T08:10:24;11.43;;;3.70;;
10295;SDS011;5193;51.032;6.356;2023-08-21T08:12:49;7.93;;;3.70;;
10295;SDS011;5193;51.032;6.356;2023-08-21T08:15:15;6.43;;;3.00;;
10295;SDS011;5193;51.032;6.356;2023-08-21T08:17:41;6.57;;;3.40;;
10295;SDS011;5193;51.032;6.356;2023-08-21T08:20:07;6.33;;;3.47;;
10295;SDS011;5193;51.032;6.356;2023-08-21T08:22:33;8.83;;;3.57;;
10295;SDS011;5193;51.032;6.356;2023-08-21T08:24:59;6.40;;;3.27;;
10295;SDS011;5193;51.032;6.356;2023-08-21T08:27:24;10.03;;;3.73;;
10295;SDS011;5193;51.032;6.356;2023-08-21T08:29:50;9.73;;;3.13;;
10295;SDS011;5193;51.032;6.356;2023-08-21T08:32:19;7.93;;;3.90;;
10295;SDS011;5193;51.032;6.356;2023-08-21T08:34:45;7.77;;;3.53;;
10295;SDS011;5193;51.032;6.356;2023-08-21T08:37:11;6.50;;;3.50;;
10295;SDS011;5193;51.032;6.356;2023-08-21T08:39:37;12.27;;;3.40;;
10295;SDS011;5193;51.032;6.356;2023-08-21T08:42:03;5.60;;;3.20;;
10295;SDS011;5193;51.032;6.356;2023-08-21T08:44:30;7.90;;;3.20;;
10295;SDS011;5193;51.032;6.356;2023-08-21T08:46:57;8.00;;;3.27;;
10295;SDS011;5193;51.032;6.356;2023-08-21T08:49:24;8.93;;;3.17;;
10295;SDS011;5193;51.032;6.356;2023-08-21T08:51:50;7.67;;;3.30;;
10295;SDS011;5193;51.032;6.356;2023-08-21T08:54:16;5.40;;;3.10;;
10295;SDS011;5193;51.032;6.356;2023-08-21T08:56:43;6.90;;;2.80;;
10295;SDS011;5193;51.032;6.356;2023-08-21T08:59:09;7.93;;;3.43;;
10295;SDS011;5193;51.032;6.356;2023-08-21T09:01:35;12.43;;;3.53;;
10295;SDS011;5193;51.032;6.356;2023-08-21T09:04:01;8.60;;;3.17;;
10295;SDS011;5193;51.032;6.356;2023-08-21T09:06:27;6.50;;;3.57;;
10295;SDS011;5193;51.032;6.356;2023-08-21T09:08:54;7.83;;;3.50;;
10295;SDS011;5193;51.032;6.356;2023-08-21T09:11:20;10.50;;;3.23;;
10295;SDS011;5193;51.032;6.356;2023-08-21T09:13:48;11.23;;;3.30;;
10295;SDS011;5193;51.032;6.356;2023-08-21T09:16:15;5.83;;;3.17;;
10295;SDS011;5193;51.032;6.356;2023-08-21T09:18:46;11.70;;;4.50;;
10295;SDS011;5193;51.032;6.356;2023-08-21T09:21:15;8.33;;;3.43;;
10295;SDS011;5193;51.032;6.356;2023-08-21T09:26:09;8.30;;;3.00;;
10295;SDS011;5193;51.032;6.356;2023-08-21T09:28:35;7.73;;;3.23;;
10295;SDS011;5193;51.032;6.356;2023-08-21T09:31:00;5.13;;;2.77;;
10295;SDS011;5193;51.032;6.356;2023-08-21T09:33:27;5.07;;;2.73;;
10295;SDS011;5193;51.032;6.356;2023-08-21T09:35:53;6.37;;;3.47;;
10295;SDS011;5193;51.032;6.356;2023-08-21T09:38:20;6.87;;;3.40;;
10295;SDS011;5193;51.032;6.356;2023-08-21T09:40:53;8.27;;;2.97;;
10295;SDS011;5193;51.032;6.356;2023-08-21T09:43:20;10.07;;;3.23;;
10295;SDS011;5193;51.032;6.356;2023-08-21T09:45:50;5.90;;;3.03;;
10295;SDS011;5193;51.032;6.356;2023-08-21T09:48:23;6.47;;;2.97;;
10295;SDS011;5193;51.032;6.356;2023-08-21T09:50:52;7.30;;;3.00;;
10295;SDS011;5193;51.032;6.356;2023-08-21T09:53:21;6.63;;;3.27;;
10295;SDS011;5193;51.032;6.356;2023-08-21T09:55:48;9.03;;;3.47;;
10295;SDS011;5193;51.032;6.356;2023-08-21T09:58:19;6.13;;;2.77;;
10295;SDS011;5193;51.032;6.356;2023-08-21T10:00:45;6.53;;;2.77;;
10295;SDS011;5193;51.032;6.356;2023-08-21T10:03:14;9.10;;;2.93;;
10295;SDS011;5193;51.032;6.356;2023-08-21T10:05:44;9.10;;;3.13;;
10295;SDS011;5193;51.032;6.356;2023-08-21T10:08:12;6.10;;;3.10;;
10295;SDS011;5193;51.032;6.356;2023-08-21T10:10:43;10.07;;;2.83;;
10295;SDS011;5193;51.032;6.356;2023-08-21T10:13:09;6.33;;;3.07;;
10295;SDS011;5193;51.032;6.356;2023-08-21T10:15:35;6.50;;;3.00;;
10295;SDS011;5193;51.032;6.356;2023-08-21T10:18:22;7.05;;;2.75;;
10295;SDS011;5193;51.032;6.356;2023-08-21T10:20:49;9.75;;;2.90;;
10295;SDS011;5193;51.032;6.356;2023-08-21T10:23:28;5.20;;;2.70;;
10295;SDS011;5193;51.032;6.356;2023-08-21T10:25:55;7.53;;;2.80;;
10295;SDS011;5193;51.032;6.356;2023-08-21T10:28:25;13.40;;;2.78;;
10295;SDS011;5193;51.032;6.356;2023-08-21T10:33:50;8.20;;;2.55;;
10295;SDS011;5193;51.032;6.356;2023-08-21T10:36:28;12.40;;;2.58;;
10295;SDS011;5193;51.032;6.356;2023-08-21T10:39:05;6.95;;;2.70;;
10295;SDS011;5193;51.032;6.356;2023-08-21T10:41:42;6.95;;;2.92;;
10295;SDS011;5193;51.032;6.356;2023-08-21T10:47:50;6.40;;;2.35;;
10295;SDS011;5193;51.032;6.356;2023-08-21T10:50:12;8.60;;;2.75;;
10295;SDS011;5193;51.032;6.356;2023-08-21T10:52:38;6.05;;;2.60;;
10295;SDS011;5193;51.032;6.356;2023-08-21T10:55:10;8.02;;;2.85;;
10295;SDS011;5193;51.032;6.356;2023-08-21T10:57:36;5.28;;;2.40;;
10295;SDS011;5193;51.032;6.356;2023-08-21T11:02:30;8.27;;;3.00;;
10295;SDS011;5193;51.032;6.356;2023-08-21T11:04:57;10.30;;;2.67;;
10295;SDS011;5193;51.032;6.356;2023-08-21T11:07:24;6.57;;;2.17;;
10295;SDS011;5193;51.032;6.356;2023-08-21T11:09:50;5.97;;;2.75;;
10295;SDS011;5193;51.032;6.356;2023-08-21T11:12:17;11.93;;;3.10;;
10295;SDS011;5193;51.032;6.356;2023-08-21T11:14:44;3.47;;;2.20;;
10295;SDS011;5193;51.032;6.356;2023-08-21T11:17:10;5.28;;;2.53;;
10295;SDS011;5193;51.032;6.356;2023-08-21T11:19:37;5.05;;;2.53;;
10295;SDS011;5193;51.032;6.356;2023-08-21T11:22:03;7.00;;;2.45;;
10295;SDS011;5193;51.032;6.356;2023-08-21T11:24:38;6.65;;;2.35;;
10295;SDS011;5193;51.032;6.356;2023-08-21T11:27:10;6.30;;;2.42;;
10295;SDS011;5193;51.032;6.356;2023-08-21T11:32:24;4.28;;;2.33;;
10295;SDS011;5193;51.032;6.356;2023-08-21T11:34:51;4.45;;;2.17;;
10295;SDS011;5193;51.032;6.356;2023-08-21T11:37:21;5.07;;;2.00;;
10295;SDS011;5193;51.032;6.356;2023-08-21T11:39:55;6.07;;;2.53;;
10295;SDS011;5193;51.032;6.356;2023-08-21T11:42:23;9.35;;;2.63;;
10295;SDS011;5193;51.032;6.356;2023-08-21T11:44:58;5.82;;;2.25;;
10295;SDS011;5193;51.032;6.356;2023-08-21T11:47:32;7.05;;;2.45;;
10295;SDS011;5193;51.032;6.356;2023-08-21T11:50:05;8.40;;;2.10;;
10295;SDS011;5193;51.032;6.356;2023-08-21T11:52:32;4.55;;;1.92;;
10295;SDS011;5193;51.032;6.356;2023-08-21T11:54:58;7.43;;;1.73;;
10295;SDS011;5193;51.032;6.356;2023-08-21T11:57:24;7.95;;;2.10;;
10295;SDS011;5193;51.032;6.356;2023-08-21T11:59:50;6.47;;;1.83;;
10295;SDS011;5193;51.032;6.356;2023-08-21T12:02:26;10.13;;;2.08;;
10295;SDS011;5193;51.032;6.356;2023-08-21T12:04:53;4.55;;;1.73;;
10295;SDS011;5193;51.032;6.356;2023-08-21T12:07:20;5.68;;;1.88;;
10295;SDS011;5193;51.032;6.356;2023-08-21T12:09:46;8.18;;;1.80;;
10295;SDS011;5193;51.032;6.356;2023-08-21T12:12:14;5.32;;;2.47;;
10295;SDS011;5193;51.032;6.356;2023-08-21T12:14:40;3.70;;;1.50;;
10295;SDS011;5193;51.032;6.356;2023-08-21T12:17:05;4.70;;;1.90;;
10295;SDS011;5193;51.032;6.356;2023-08-21T12:19:32;6.57;;;1.90;;
10295;SDS011;5193;51.032;6.356;2023-08-21T12:21:58;4.72;;;1.60;;
10295;SDS011;5193;51.032;6.356;2023-08-21T12:27:00;5.55;;;1.50;;
10295;SDS011;5193;51.032;6.356;2023-08-21T12:29:25;4.00;;;1.63;;
10295;SDS011;5193;51.032;6.356;2023-08-21T12:31:51;3.50;;;1.88;;
10295;SDS011;5193;51.032;6.356;2023-08-21T12:34:17;4.70;;;1.70;;
10295;SDS011;5193;51.032;6.356;2023-08-21T12:36:43;7.38;;;1.83;;
10295;SDS011;5193;51.032;6.356;2023-08-21T12:39:10;3.53;;;1.50;;
10295;SDS011;5193;51.032;6.356;2023-08-21T12:41:36;3.15;;;1.58;;
10295;SDS011;5193;51.032;6.356;2023-08-21T12:44:03;3.70;;;1.40;;
10295;SDS011;5193;51.032;6.356;2023-08-21T12:46:33;7.13;;;2.10;;
10295;SDS011;5193;51.032;6.356;2023-08-21T12:49:00;4.90;;;1.95;;
10295;SDS011;5193;51.032;6.356;2023-08-21T12:51:27;4.32;;;1.50;;
10295;SDS011;5193;51.032;6.356;2023-08-21T12:53:54;7.88;;;1.50;;
10295;SDS011;5193;51.032;6.356;2023-08-21T12:56:20;3.50;;;1.23;;
10295;SDS011;5193;51.032;6.356;2023-08-21T12:58:46;3.03;;;1.08;;
10295;SDS011;5193;51.032;6.356;2023-08-21T13:01:13;7.15;;;1.60;;
10295;SDS011;5193;51.032;6.356;2023-08-21T13:03:45;3.72;;;1.50;;
10295;SDS011;5193;51.032;6.356;2023-08-21T13:06:11;4.75;;;1.60;;
10295;SDS011;5193;51.032;6.356;2023-08-21T13:08:38;4.78;;;1.52;;
10295;SDS011;5193;51.032;6.356;2023-08-21T13:11:04;4.60;;;1.50;;
10295;SDS011;5193;51.032;6.356;2023-08-21T13:15:59;4.15;;;1.50;;
10295;SDS011;5193;51.032;6.356;2023-08-21T13:18:25;2.67;;;1.27;;
10295;SDS011;5193;51.032;6.356;2023-08-21T13:20:51;5.65;;;1.52;;
10295;SDS011;5193;51.032;6.356;2023-08-21T13:23:16;3.28;;;1.33;;
10295;SDS011;5193;51.032;6.356;2023-08-21T13:25:42;3.60;;;1.48;;
10295;SDS011;5193;51.032;6.356;2023-08-21T13:28:08;3.60;;;1.20;;
10295;SDS011;5193;51.032;6.356;2023-08-21T13:30:34;3.72;;;1.40;;
10295;SDS011;5193;51.032;6.356;2023-08-21T13:32:59;5.32;;;1.40;;
10295;SDS011;5193;51.032;6.356;2023-08-21T13:35:25;5.82;;;1.45;;
10295;SDS011;5193;51.032;6.356;2023-08-21T13:37:51;3.15;;;1.48;;
10295;SDS011;5193;51.032;6.356;2023-08-21T13:40:27;4.70;;;1.25;;
10295;SDS011;5193;51.032;6.356;2023-08-21T13:43:01;4.90;;;1.30;;
10295;SDS011;5193;51.032;6.356;2023-08-21T13:48:03;4.55;;;1.42;;
10295;SDS011;5193;51.032;6.356;2023-08-21T13:50:29;4.05;;;1.38;;
10295;SDS011;5193;51.032;6.356;2023-08-21T13:52:55;4.38;;;1.45;;
10295;SDS011;5193;51.032;6.356;2023-08-21T13:55:21;6.55;;;1.52;;
10295;SDS011;5193;51.032;6.356;2023-08-21T14:05:31;5.78;;;1.60;;
10295;SDS011;5193;51.032;6.356;2023-08-21T14:07:58;5.53;;;1.63;;
10295;SDS011;5193;51.032;6.356;2023-08-21T14:10:24;5.00;;;1.50;;
10295;SDS011;5193;51.032;6.356;2023-08-21T14:12:50;7.35;;;1.83;;
10295;SDS011;5193;51.032;6.356;2023-08-21T14:15:16;2.40;;;1.33;;
10295;SDS011;5193;51.032;6.356;2023-08-21T14:17:43;3.97;;;1.60;;
10295;SDS011;5193;51.032;6.356;2023-08-21T14:20:09;4.45;;;1.80;;
10295;SDS011;5193;51.032;6.356;2023-08-21T14:22:36;5.30;;;1.55;;
10295;SDS011;5193;51.032;6.356;2023-08-21T14:25:03;5.25;;;2.00;;
10295;SDS011;5193;51.032;6.356;2023-08-21T14:27:30;5.88;;;1.50;;
10295;SDS011;5193;51.032;6.356;2023-08-21T14:29:56;4.22;;;2.00;;
10295;SDS011;5193;51.032;6.356;2023-08-21T14:32:22;5.88;;;1.50;;
10295;SDS011;5193;51.032;6.356;2023-08-21T14:34:48;10.30;;;2.08;;
10295;SDS011;5193;51.032;6.356;2023-08-21T14:37:13;4.90;;;1.50;;
10295;SDS011;5193;51.032;6.356;2023-08-21T14:39:40;3.65;;;1.60;;
10295;SDS011;5193;51.032;6.356;2023-08-21T14:42:08;5.20;;;1.33;;
10295;SDS011;5193;51.032;6.356;2023-08-21T14:44:33;3.47;;;1.35;;
10295;SDS011;5193;51.032;6.356;2023-08-21T14:47:01;4.63;;;1.80;;
10295;SDS011;5193;51.032;6.356;2023-08-21T14:49:27;3.30;;;1.45;;
10295;SDS011;5193;51.032;6.356;2023-08-21T14:51:53;2.67;;;1.50;;
10295;SDS011;5193;51.032;6.356;2023-08-21T14:54:19;4.38;;;1.50;;
10295;SDS011;5193;51.032;6.356;2023-08-21T14:56:45;5.05;;;1.55;;
10295;SDS011;5193;51.032;6.356;2023-08-21T14:59:11;6.75;;;1.55;;
10295;SDS011;5193;51.032;6.356;2023-08-21T15:01:38;7.63;;;2.10;;
10295;SDS011;5193;51.032;6.356;2023-08-21T15:04:04;4.95;;;1.52;;
10295;SDS011;5193;51.032;6.356;2023-08-21T15:06:30;4.32;;;1.83;;
10295;SDS011;5193;51.032;6.356;2023-08-21T15:08:56;5.22;;;1.67;;
10295;SDS011;5193;51.032;6.356;2023-08-21T15:11:22;3.78;;;1.30;;
10295;SDS011;5193;51.032;6.356;2023-08-21T15:13:47;5.50;;;1.60;;
10295;SDS011;5193;51.032;6.356;2023-08-21T15:16:13;4.18;;;1.70;;
10295;SDS011;5193;51.032;6.356;2023-08-21T15:18:39;2.95;;;1.75;;
10295;SDS011;5193;51.032;6.356;2023-08-21T15:21:05;5.32;;;1.88;;
10295;SDS011;5193;51.032;6.356;2023-08-21T15:23:30;3.90;;;1.83;;
10295;SDS011;5193;51.032;6.356;2023-08-21T15:25:56;7.60;;;1.63;;
10295;SDS011;5193;51.032;6.356;2023-08-21T15:28:21;5.78;;;2.03;;
10295;SDS011;5193;51.032;6.356;2023-08-21T15:30:47;5.60;;;1.55;;
10295;SDS011;5193;51.032;6.356;2023-08-21T15:33:13;4.55;;;1.90;;
10295;SDS011;5193;51.032;6.356;2023-08-21T15:35:39;5.20;;;1.90;;
10295;SDS011;5193;51.032;6.356;2023-08-21T15:38:04;7.72;;;1.50;;
10295;SDS011;5193;51.032;6.356;2023-08-21T15:40:30;3.20;;;1.63;;
10295;SDS011;5193;51.032;6.356;2023-08-21T15:42:57;7.00;;;1.73;;
10295;SDS011;5193;51.032;6.356;2023-08-21T15:45:26;5.07;;;2.00;;
10295;SDS011;5193;51.032;6.356;2023-08-21T15:47:52;3.55;;;1.50;;
10295;SDS011;5193;51.032;6.356;2023-08-21T15:50:17;3.50;;;1.55;;
10295;SDS011;5193;51.032;6.356;2023-08-21T15:52:44;3.78;;;1.65;;
10295;SDS011;5193;51.032;6.356;2023-08-21T15:55:11;4.40;;;1.70;;
10295;SDS011;5193;51.032;6.356;2023-08-21T15:57:36;6.18;;;2.20;;
10295;SDS011;5193;51.032;6.356;2023-08-21T16:00:02;6.22;;;1.90;;
10295;SDS011;5193;51.032;6.356;2023-08-21T16:02:28;4.10;;;1.70;;
10295;SDS011;5193;51.032;6.356;2023-08-21T16:04:54;3.72;;;1.67;;
10295;SDS011;5193;51.032;6.356;2023-08-21T16:07:20;7.38;;;1.98;;
10295;SDS011;5193;51.032;6.356;2023-08-21T16:09:46;9.68;;;1.90;;
10295;SDS011;5193;51.032;6.356;2023-08-21T16:12:11;4.90;;;1.70;;
10295;SDS011;5193;51.032;6.356;2023-08-21T16:14:37;4.38;;;1.55;;
10295;SDS011;5193;51.032;6.356;2023-08-21T16:17:02;3.92;;;1.65;;
10295;SDS011;5193;51.032;6.356;2023-08-21T16:19:28;3.95;;;1.65;;
10295;SDS011;5193;51.032;6.356;2023-08-21T16:21:54;7.07;;;2.28;;
10295;SDS011;5193;51.032;6.356;2023-08-21T16:24:19;3.00;;;1.60;;
10295;SDS011;5193;51.032;6.356;2023-08-21T16:26:45;3.60;;;1.65;;
10295;SDS011;5193;51.032;6.356;2023-08-21T16:29:12;5.93;;;1.65;;
10295;SDS011;5193;51.032;6.356;2023-08-21T16:31:42;5.97;;;1.83;;
10295;SDS011;5193;51.032;6.356;2023-08-21T16:34:38;5.32;;;1.55;;
10295;SDS011;5193;51.032;6.356;2023-08-21T16:37:03;3.55;;;1.50;;
10295;SDS011;5193;51.032;6.356;2023-08-21T16:39:29;4.40;;;1.30;;
10295;SDS011;5193;51.032;6.356;2023-08-21T16:41:55;7.50;;;1.73;;
10295;SDS011;5193;51.032;6.356;2023-08-21T16:44:21;4.45;;;1.90;;
10295;SDS011;5193;51.032;6.356;2023-08-21T16:46:47;5.47;;;1.58;;
10295;SDS011;5193;51.032;6.356;2023-08-21T16:49:16;4.85;;;1.45;;
10295;SDS011;5193;51.032;6.356;2023-08-21T16:51:42;3.20;;;1.38;;
10295;SDS011;5193;51.032;6.356;2023-08-21T16:54:09;3.67;;;1.45;;
10295;SDS011;5193;51.032;6.356;2023-08-21T16:56:36;3.33;;;1.42;;
10295;SDS011;5193;51.032;6.356;2023-08-21T16:59:05;3.58;;;1.48;;
10295;SDS011;5193;51.032;6.356;2023-08-21T17:01:32;6.32;;;1.65;;
10295;SDS011;5193;51.032;6.356;2023-08-21T17:03:57;6.15;;;1.58;;
10295;SDS011;5193;51.032;6.356;2023-08-21T17:06:23;8.48;;;1.75;;
10295;SDS011;5193;51.032;6.356;2023-08-21T17:08:49;5.53;;;1.27;;
10295;SDS011;5193;51.032;6.356;2023-08-21T17:11:16;6.50;;;1.67;;
10295;SDS011;5193;51.032;6.356;2023-08-21T17:13:42;5.43;;;1.90;;
10295;SDS011;5193;51.032;6.356;2023-08-21T17:16:10;7.28;;;2.22;;
10295;SDS011;5193;51.032;6.356;2023-08-21T17:18:36;4.65;;;1.48;;
10295;SDS011;5193;51.032;6.356;2023-08-21T17:21:02;4.90;;;1.58;;
10295;SDS011;5193;51.032;6.356;2023-08-21T17:23:28;4.13;;;1.70;;
10295;SDS011;5193;51.032;6.356;2023-08-21T17:25:54;4.25;;;1.70;;
10295;SDS011;5193;51.032;6.356;2023-08-21T17:28:22;4.95;;;1.58;;
10295;SDS011;5193;51.032;6.356;2023-08-21T17:30:48;3.85;;;1.98;;
10295;SDS011;5193;51.032;6.356;2023-08-21T17:33:13;4.43;;;1.73;;
10295;SDS011;5193;51.032;6.356;2023-08-21T17:35:40;5.70;;;1.80;;
10295;SDS011;5193;51.032;6.356;2023-08-21T17:38:06;4.28;;;1.70;;
10295;SDS011;5193;51.032;6.356;2023-08-21T17:40:34;5.32;;;1.98;;
10295;SDS011;5193;51.032;6.356;2023-08-21T17:43:01;4.65;;;1.58;;
10295;SDS011;5193;51.032;6.356;2023-08-21T17:45:27;5.50;;;2.00;;
10295;SDS011;5193;51.032;6.356;2023-08-21T17:47:54;5.83;;;1.93;;
10295;SDS011;5193;51.032;6.356;2023-08-21T17:50:20;3.22;;;1.65;;
10295;SDS011;5193;51.032;6.356;2023-08-21T17:52:46;5.80;;;1.73;;
10295;SDS011;5193;51.032;6.356;2023-08-21T17:55:12;6.33;;;1.60;;
10295;SDS011;5193;51.032;6.356;2023-08-21T17:57:37;10.90;;;1.93;;
10295;SDS011;5193;51.032;6.356;2023-08-21T18:00:06;13.80;;;2.33;;
10295;SDS011;5193;51.032;6.356;2023-08-21T18:02:34;20.30;;;2.10;;
10295;SDS011;5193;51.032;6.356;2023-08-21T18:05:03;8.83;;;2.10;;
10295;SDS011;5193;51.032;6.356;2023-08-21T18:07:31;9.00;;;1.80;;
10295;SDS011;5193;51.032;6.356;2023-08-21T18:09:58;5.83;;;1.50;;
10295;SDS011;5193;51.032;6.356;2023-08-21T18:12:24;8.00;;;1.97;;
10295;SDS011;5193;51.032;6.356;2023-08-21T18:14:49;8.53;;;2.37;;
10295;SDS011;5193;51.032;6.356;2023-08-21T18:17:15;6.80;;;1.90;;
10295;SDS011;5193;51.032;6.356;2023-08-21T18:19:41;4.77;;;1.60;;
10295;SDS011;5193;51.032;6.356;2023-08-21T18:22:07;2.93;;;1.37;;
10295;SDS011;5193;51.032;6.356;2023-08-21T18:24:32;7.47;;;1.90;;
10295;SDS011;5193;51.032;6.356;2023-08-21T18:26:59;4.63;;;1.47;;
10295;SDS011;5193;51.032;6.356;2023-08-21T18:29:24;4.27;;;1.70;;
10295;SDS011;5193;51.032;6.356;2023-08-21T18:31:50;7.67;;;1.83;;
10295;SDS011;5193;51.032;6.356;2023-08-21T18:34:16;5.93;;;1.40;;
10295;SDS011;5193;51.032;6.356;2023-08-21T18:36:41;5.23;;;1.80;;
10295;SDS011;5193;51.032;6.356;2023-08-21T18:39:07;4.47;;;1.80;;
10295;SDS011;5193;51.032;6.356;2023-08-21T18:41:33;3.77;;;1.60;;
10295;SDS011;5193;51.032;6.356;2023-08-21T18:43:59;3.23;;;1.40;;
10295;SDS011;5193;51.032;6.356;2023-08-21T18:46:25;5.13;;;2.07;;
10295;SDS011;5193;51.032;6.356;2023-08-21T18:48:50;3.63;;;1.80;;
10295;SDS011;5193;51.032;6.356;2023-08-21T18:51:16;7.47;;;2.00;;
10295;SDS011;5193;51.032;6.356;2023-08-21T18:53:42;4.03;;;1.80;;
10295;SDS011;5193;51.032;6.356;2023-08-21T18:56:09;3.97;;;1.60;;
10295;SDS011;5193;51.032;6.356;2023-08-21T18:58:36;6.27;;;1.83;;
10295;SDS011;5193;51.032;6.356;2023-08-21T19:01:02;7.90;;;1.80;;
10295;SDS011;5193;51.032;6.356;2023-08-21T19:03:28;5.10;;;2.00;;
10295;SDS011;5193;51.032;6.356;2023-08-21T19:05:54;8.23;;;1.90;;
10295;SDS011;5193;51.032;6.356;2023-08-21T19:08:19;3.80;;;1.80;;
10295;SDS011;5193;51.032;6.356;2023-08-21T19:10:45;6.73;;;2.43;;
10295;SDS011;5193;51.032;6.356;2023-08-21T19:13:12;9.97;;;2.57;;
10295;SDS011;5193;51.032;6.356;2023-08-21T19:15:40;9.73;;;2.23;;
10295;SDS011;5193;51.032;6.356;2023-08-21T19:18:06;8.03;;;1.73;;
10295;SDS011;5193;51.032;6.356;2023-08-21T19:20:31;12.10;;;2.07;;
10295;SDS011;5193;51.032;6.356;2023-08-21T19:22:57;7.23;;;2.00;;
10295;SDS011;5193;51.032;6.356;2023-08-21T19:25:23;5.13;;;1.93;;
10295;SDS011;5193;51.032;6.356;2023-08-21T19:27:49;8.17;;;1.60;;
10295;SDS011;5193;51.032;6.356;2023-08-21T19:30:14;7.33;;;2.13;;
10295;SDS011;5193;51.032;6.356;2023-08-21T19:32:40;5.53;;;1.97;;
10295;SDS011;5193;51.032;6.356;2023-08-21T19:35:07;10.17;;;1.73;;
10295;SDS011;5193;51.032;6.356;2023-08-21T19:37:33;6.87;;;1.57;;
10295;SDS011;5193;51.032;6.356;2023-08-21T19:39:59;5.60;;;1.83;;
10295;SDS011;5193;51.032;6.356;2023-08-21T19:42:25;3.70;;;1.90;;
10295;SDS011;5193;51.032;6.356;2023-08-21T19:44:51;11.00;;;1.67;;
10295;SDS011;5193;51.032;6.356;2023-08-21T19:47:16;5.33;;;1.90;;
10295;SDS011;5193;51.032;6.356;2023-08-21T19:49:42;11.17;;;2.83;;
10295;SDS011;5193;51.032;6.356;2023-08-21T19:52:07;9.33;;;1.83;;
10295;SDS011;5193;51.032;6.356;2023-08-21T19:54:33;10.37;;;2.10;;
10295;SDS011;5193;51.032;6.356;2023-08-21T19:56:59;11.17;;;2.40;;
10295;SDS011;5193;51.032;6.356;2023-08-21T19:59:25;10.77;;;2.00;;
10295;SDS011;5193;51.032;6.356;2023-08-21T20:01:51;6.47;;;1.80;;
10295;SDS011;5193;51.032;6.356;2023-08-21T20:04:16;8.50;;;1.90;;
10295;SDS011;5193;51.032;6.356;2023-08-21T20:06:42;4.17;;;1.90;;
10295;SDS011;5193;51.032;6.356;2023-08-21T20:09:07;6.37;;;1.77;;
10295;SDS011;5193;51.032;6.356;2023-08-21T20:11:35;10.13;;;2.27;;
10295;SDS011;5193;51.032;6.356;2023-08-21T20:14:00;7.67;;;2.30;;
10295;SDS011;5193;51.032;6.356;2023-08-21T20:16:26;6.60;;;1.60;;
10295;SDS011;5193;51.032;6.356;2023-08-21T20:18:52;3.67;;;1.87;;
10295;SDS011;5193;51.032;6.356;2023-08-21T20:21:18;7.00;;;1.93;;
10295;SDS011;5193;51.032;6.356;2023-08-21T20:23:46;5.77;;;1.70;;
10295;SDS011;5193;51.032;6.356;2023-08-21T20:26:11;3.63;;;1.47;;
10295;SDS011;5193;51.032;6.356;2023-08-21T20:28:37;3.00;;;1.70;;
10295;SDS011;5193;51.032;6.356;2023-08-21T20:31:03;6.17;;;1.97;;
10295;SDS011;5193;51.032;6.356;2023-08-21T20:33:29;7.00;;;1.73;;
10295;SDS011;5193;51.032;6.356;2023-08-21T20:35:58;11.83;;;1.90;;
10295;SDS011;5193;51.032;6.356;2023-08-21T20:38:25;5.13;;;1.70;;
10295;SDS011;5193;51.032;6.356;2023-08-21T20:40:54;4.57;;;1.80;;
10295;SDS011;5193;51.032;6.356;2023-08-21T20:43:25;7.50;;;2.00;;
10295;SDS011;5193;51.032;6.356;2023-08-21T20:45:51;6.30;;;2.00;;
10295;SDS011;5193;51.032;6.356;2023-08-21T20:48:16;4.23;;;1.60;;
10295;SDS011;5193;51.032;6.356;2023-08-21T20:50:42;7.17;;;1.80;;
10295;SDS011;5193;51.032;6.356;2023-08-21T20:53:08;9.87;;;1.80;;
10295;SDS011;5193;51.032;6.356;2023-08-21T20:55:33;3.13;;;1.70;;
10295;SDS011;5193;51.032;6.356;2023-08-21T20:57:59;4.47;;;1.90;;
10295;SDS011;5193;51.032;6.356;2023-08-21T21:00:24;3.57;;;1.47;;
10295;SDS011;5193;51.032;6.356;2023-08-21T21:02:52;4.70;;;1.90;;
10295;SDS011;5193;51.032;6.356;2023-08-21T21:05:17;3.20;;;1.50;;
10295;SDS011;5193;51.032;6.356;2023-08-21T21:07:43;4.00;;;1.70;;
10295;SDS011;5193;51.032;6.356;2023-08-21T21:10:09;4.10;;;1.83;;
10295;SDS011;5193;51.032;6.356;2023-08-21T21:12:34;6.17;;;1.93;;
10295;SDS011;5193;51.032;6.356;2023-08-21T21:15:00;6.77;;;1.70;;
10295;SDS011;5193;51.032;6.356;2023-08-21T21:17:26;4.23;;;1.63;;
10295;SDS011;5193;51.032;6.356;2023-08-21T21:19:52;7.07;;;2.00;;
10295;SDS011;5193;51.032;6.356;2023-08-21T21:22:17;5.43;;;1.70;;
10295;SDS011;5193;51.032;6.356;2023-08-21T21:24:43;8.93;;;2.33;;
10295;SDS011;5193;51.032;6.356;2023-08-21T21:27:08;6.07;;;1.90;;
10295;SDS011;5193;51.032;6.356;2023-08-21T21:29:34;6.03;;;2.80;;
10295;SDS011;5193;51.032;6.356;2023-08-21T21:31:59;6.40;;;2.00;;
10295;SDS011;5193;51.032;6.356;2023-08-21T21:34:26;5.27;;;1.97;;
10295;SDS011;5193;51.032;6.356;2023-08-21T21:36:51;5.13;;;1.80;;
10295;SDS011;5193;51.032;6.356;2023-08-21T21:39:17;3.47;;;1.70;;
10295;SDS011;5193;51.032;6.356;2023-08-21T21:41:42;4.00;;;1.93;;
10295;SDS011;5193;51.032;6.356;2023-08-21T21:44:08;6.77;;;2.40;;
10295;SDS011;5193;51.032;6.356;2023-08-21T21:46:34;4.57;;;2.00;;
10295;SDS011;5193;51.032;6.356;2023-08-21T21:48:59;5.37;;;1.57;;
10295;SDS011;5193;51.032;6.356;2023-08-21T21:51:25;3.50;;;2.10;;
10295;SDS011;5193;51.032;6.356;2023-08-21T21:53:51;4.07;;;1.80;;
10295;SDS011;5193;51.032;6.356;2023-08-21T21:56:17;6.07;;;2.50;;
10295;SDS011;5193;51.032;6.356;2023-08-21T21:58:43;7.20;;;2.03;;
10295;SDS011;5193;51.032;6.356;2023-08-21T22:01:08;5.57;;;1.93;;
10295;SDS011;5193;51.032;6.356;2023-08-21T22:03:34;6.13;;;2.10;;
10295;SDS011;5193;51.032;6.356;2023-08-21T22:06:00;7.10;;;2.10;;
10295;SDS011;5193;51.032;6.356;2023-08-21T22:08:26;6.13;;;1.90;;
10295;SDS011;5193;51.032;6.356;2023-08-21T22:10:52;6.83;;;1.90;;
10295;SDS011;5193;51.032;6.356;2023-08-21T22:13:18;5.10;;;1.60;;
10295;SDS011;5193;51.032;6.356;2023-08-21T22:15:44;4.83;;;1.97;;
10295;SDS011;5193;51.032;6.356;2023-08-21T22:18:10;7.93;;;1.93;;
10295;SDS011;5193;51.032;6.356;2023-08-21T22:20:36;5.13;;;1.90;;
10295;SDS011;5193;51.032;6.356;2023-08-21T22:23:03;9.30;;;2.17;;
10295;SDS011;5193;51.032;6.356;2023-08-21T22:25:30;6.03;;;1.77;;
10295;SDS011;5193;51.032;6.356;2023-08-21T22:27:56;4.77;;;1.83;;
10295;SDS011;5193;51.032;6.356;2023-08-21T22:30:22;9.10;;;2.33;;
10295;SDS011;5193;51.032;6.356;2023-08-21T22:32:47;6.00;;;2.07;;
10295;SDS011;5193;51.032;6.356;2023-08-21T22:35:13;3.13;;;2.07;;
10295;SDS011;5193;51.032;6.356;2023-08-21T22:37:39;7.17;;;2.37;;
10295;SDS011;5193;51.032;6.356;2023-08-21T22:40:05;3.93;;;2.13;;
10295;SDS011;5193;51.032;6.356;2023-08-21T22:42:31;7.43;;;2.40;;
10295;SDS011;5193;51.032;6.356;2023-08-21T22:44:57;5.50;;;2.23;;
10295;SDS011;5193;51.032;6.356;2023-08-21T22:47:26;5.97;;;2.10;;
10295;SDS011;5193;51.032;6.356;2023-08-21T22:49:52;8.67;;;2.37;;
10295;SDS011;5193;51.032;6.356;2023-08-21T22:52:17;6.30;;;2.00;;
10295;SDS011;5193;51.032;6.356;2023-08-21T22:54:43;5.77;;;2.30;;